Cambridge Bay Airport
CYCB : now visible

Airfield :











YOU CAN JOIN US ON...

 
LOGIN :

Register | Disclaimer

   EN    FR    IT 

 









Legend :    VFR   Marginal VFR   IFR   Intensive IFR   Very Intensive IFR
Visi :
Ceiling :
>= 8 km
>= 3000ft
5 to 8 km
1000 to 3000 ft
1500m to 5 km
500 to 1000 ft
800 to 1500m
200 to 500 ft
< 800m
< 200 ft
Symbols :   Thunderstorms  Fog  Heavy snow  Heavy precipitations  Wind > 20 kt






- Airport Elevation : 90 ft
- IATA code : YCB


CYCB - Cambridge Bay

CURRENT METAR :
  • 172100Z 33026KT 1/8SM +BLSN VV003 M25/M28 A2995 RMK BLSN8 VIS VRB 0-1/4 CIG VRB 2-4 SLP150

EXPIRED METARs :
  • 172000Z 32028G35KT 1/8SM +BLSN VV003 M25/M28 A2993 RMK BLSN8 VIS VRB 0-1/4 CIG VRB 2-4 PRESRR SLP141
  • 171900Z 33029G38KT 1/8SM +BLSN VV003 M24/M28 A2989 RMK BLSN8 VIS VRB 0-1/4 CIG VRB 2-4 SLP129

TAF TAF CYCB
Valid from the 17 at 19:00 until the 18 at 07:00 UTC


171838Z 1719/1807 34025G35KT 1/8SM IC +BLSN VV008
TEMPO 1719/1724 1SM BLSN OVC025
FM180000 33018KT 1SM IC BLSN VV010
TEMPO 1800/1807 3SM BLSN FEW010
BECMG 1805/1807 32012KT RMK NXT FCST BY 180100Z



MET'MAP, your aeronautical weather chart ! - Copyright ORBIFLY December 2007 - Disclaimer

ORBIFLY MET'MAP TEAM :

Programming & Development : Alexandra Zaïnal
Concept & original design : Baudouin d'Aumeries
Assistance for programming : Marc-Olivier Méhu
Technical & hardware support : Manuel Goepfert

Contact : metmap@orbifly.com




SOURCES & CREDITS :

   NOAA       Earth
Advisory